Time;durP1;ratioP1;P1;durP2;ratioP2;P2;SDS_P1;SDS_P2;PMS_P1;PMS_P2;Temp;Humidity;BMP_temperature;BMP_pressure;BME280_temperature;BME280_humidity;BME280_pressure;Samples;Min_cycle;Max_cycle;Signal;HPM_P1;HPM_P2
2023/12/31 00:01:28;;;;;;;5.47;2.30;;;;;;;4.51;80.81;100224.19;4992134;28;20216;-59
2023/12/31 00:03:57;;;;;;;5.30;2.13;;;;;;;4.49;81.18;100225.84;4992145;28;20247;-62
2023/12/31 00:06:27;;;;;;;4.60;2.13;;;;;;;4.52;81.54;100223.34;4992457;28;20216;-58
2023/12/31 00:08:57;;;;;;;4.30;2.03;;;;;;;4.53;81.40;100215.72;4991556;28;20212;-60
2023/12/31 00:11:24;;;;;;;2.97;2.07;;;;;;;4.55;81.22;100218.28;4991885;28;20204;-58
2023/12/31 00:13:52;;;;;;;4.87;2.37;;;;;;;4.56;81.65;100214.88;4991143;28;20262;-57
2023/12/31 00:16:21;;;;;;;6.90;2.43;;;;;;;4.58;81.79;100210.69;4992435;28;20213;-60
2023/12/31 00:18:49;;;;;;;6.17;2.13;;;;;;;4.58;81.73;100216.66;4992790;28;20255;-58
2023/12/31 00:21:18;;;;;;;4.97;2.43;;;;;;;4.57;81.75;100221.72;4992604;28;20694;-57
2023/12/31 00:23:46;;;;;;;4.07;2.00;;;;;;;4.55;81.94;100219.13;4992335;28;20746;-55
2023/12/31 00:26:14;;;;;;;4.77;2.30;;;;;;;4.52;82.03;100220.78;4992018;28;20204;-55
2023/12/31 00:28:42;;;;;;;4.73;2.30;;;;;;;4.48;82.11;100216.47;4992137;28;20215;-61
2023/12/31 00:31:10;;;;;;;5.33;2.07;;;;;;;4.42;81.98;100216.38;4989736;28;20204;-55
2023/12/31 00:33:38;;;;;;;5.70;2.47;;;;;;;4.31;82.81;100214.53;4992773;28;20207;-53
2023/12/31 00:36:09;;;;;;;4.13;2.77;;;;;;;4.25;82.87;100216.09;4992663;28;20636;-58
2023/12/31 00:38:39;;;;;;;5.10;2.57;;;;;;;4.20;83.44;100216.03;4978896;28;20291;-54
2023/12/31 00:41:07;;;;;;;2.90;2.40;;;;;;;4.19;83.57;100219.41;4992496;28;20251;-55
2023/12/31 00:43:35;;;;;;;7.83;3.50;;;;;;;4.16;83.27;100224.47;4992235;28;20200;-57
2023/12/31 00:46:03;;;;;;;5.57;3.13;;;;;;;4.13;84.02;100228.66;4992094;28;20251;-57
2023/12/31 00:48:31;;;;;;;3.37;2.80;;;;;;;4.09;83.77;100230.28;4991250;28;20282;-53
2023/12/31 00:51:02;;;;;;;5.87;3.57;;;;;;;4.06;84.17;100230.22;4991762;28;20248;-61
2023/12/31 00:53:30;;;;;;;7.13;3.80;;;;;;;4.02;84.26;100236.13;4991649;28;20208;-60
2023/12/31 00:55:59;;;;;;;8.20;3.53;;;;;;;4.00;84.27;100242.88;4980899;28;20574;-59
2023/12/31 00:58:27;;;;;;;5.27;3.40;;;;;;;4.00;84.90;100240.31;4991457;28;20204;-60
2023/12/31 01:00:55;;;;;;;6.53;3.30;;;;;;;4.00;84.70;100242.88;4991449;28;20210;-62
2023/12/31 01:03:23;;;;;;;6.83;3.60;;;;;;;4.00;84.87;100242.88;4991520;28;20222;-61
2023/12/31 01:05:51;;;;;;;5.67;3.43;;;;;;;3.94;85.10;100240.19;4987688;28;20199;-61
2023/12/31 01:08:19;;;;;;;8.50;4.00;;;;;;;3.99;85.45;100246.25;4991476;28;20274;-60
2023/12/31 01:10:47;;;;;;;8.73;4.43;;;;;;;4.03;85.30;100250.56;4991583;28;20216;-61
2023/12/31 01:13:16;;;;;;;7.50;4.50;;;;;;;4.09;85.40;100250.69;4991620;28;20208;-62
2023/12/31 01:15:44;;;;;;;6.27;4.10;;;;;;;4.14;85.09;100261.81;4991980;28;20250;-59
2023/12/31 01:18:12;;;;;;;6.80;3.90;;;;;;;4.15;85.37;100252.47;4995311;28;20204;-60
2023/12/31 01:20:40;;;;;;;8.00;4.27;;;;;;;4.18;84.91;100258.50;4993862;28;20578;-62
2023/12/31 01:23:08;;;;;;;8.00;4.33;;;;;;;4.11;84.98;100259.22;4994872;28;20746;-61
2023/12/31 01:25:36;;;;;;;8.37;5.00;;;;;;;4.11;85.54;100259.22;4995082;28;20226;-62
2023/12/31 01:28:05;;;;;;;7.67;4.37;;;;;;;4.14;85.52;100261.81;4994741;28;20219;-60
2023/12/31 01:30:34;;;;;;;7.27;4.77;;;;;;;4.16;85.39;100252.53;4995024;28;20772;-60
2023/12/31 01:33:02;;;;;;;6.47;3.73;;;;;;;4.19;85.55;100256.78;4994767;28;20251;-63
2023/12/31 01:35:30;;;;;;;7.33;4.07;;;;;;;4.22;85.52;100262.81;4994877;28;20290;-61
2023/12/31 01:37:58;;;;;;;5.60;4.03;;;;;;;4.24;84.78;100255.19;4993418;28;20655;-59
2023/12/31 01:40:26;;;;;;;6.33;4.17;;;;;;;4.23;84.83;100256.88;4994613;28;20231;-62
2023/12/31 01:42:54;;;;;;;7.33;4.17;;;;;;;4.24;84.94;100256.06;4994862;28;20578;-66
2023/12/31 01:45:22;;;;;;;7.30;4.40;;;;;;;4.26;84.77;100256.94;4994872;28;20545;-61
2023/12/31 01:47:53;;;;;;;6.63;4.23;;;;;;;4.31;85.07;100259.56;4994414;28;20282;-60
2023/12/31 01:50:22;;;;;;;8.10;4.40;;;;;;;4.35;84.67;100264.75;4994401;28;20208;-60
2023/12/31 01:52:51;;;;;;;7.67;4.60;;;;;;;4.38;84.55;100263.91;4993525;28;20718;-60
2023/12/31 01:55:20;;;;;;;7.33;4.40;;;;;;;4.42;84.55;100269.94;4992202;28;20648;-61
2023/12/31 01:57:48;;;;;;;10.20;4.57;;;;;;;4.43;84.58;100274.22;4994509;28;20212;-62
2023/12/31 02:00:19;;;;;;;7.83;4.30;;;;;;;4.46;84.46;100274.28;4994096;28;20203;-64
2023/12/31 02:02:49;;;;;;;9.27;4.63;;;;;;;4.48;84.36;100272.59;4994597;28;20274;-64
2023/12/31 02:05:18;;;;;;;6.13;3.93;;;;;;;4.42;83.66;100268.28;4994088;28;20674;-60
2023/12/31 02:07:47;;;;;;;9.43;4.87;;;;;;;4.40;84.13;100271.63;4994115;28;20219;-61
2023/12/31 02:10:16;;;;;;;6.37;4.30;;;;;;;4.40;84.13;100274.16;4992881;28;20606;-61
2023/12/31 02:12:44;;;;;;;7.07;4.60;;;;;;;4.36;84.06;100269.00;4994004;28;20778;-60
2023/12/31 02:15:12;;;;;;;7.73;4.50;;;;;;;4.30;84.32;100257.84;4994055;28;20212;-60
2023/12/31 02:17:40;;;;;;;9.37;4.53;;;;;;;4.25;84.39;100275.63;4994086;28;20651;-60
2023/12/31 02:20:09;;;;;;;5.60;4.20;;;;;;;4.21;84.68;100263.66;4993931;28;20219;-60
2023/12/31 02:22:39;;;;;;;9.23;4.60;;;;;;;4.19;84.64;100267.00;4993722;28;20609;-59
2023/12/31 02:25:11;;;;;;;7.60;3.83;;;;;;;4.17;84.68;100271.22;4984984;28;20200;-62
2023/12/31 02:27:41;;;;;;;7.37;4.53;;;;;;;4.13;84.43;100264.34;4991493;28;20200;-63
2023/12/31 02:30:09;;;;;;;8.00;4.17;;;;;;;4.14;85.14;100272.03;4993801;28;20204;-62
2023/12/31 02:32:37;;;;;;;8.93;4.37;;;;;;;4.17;85.07;100273.78;4993729;28;20210;-61
2023/12/31 02:35:06;;;;;;;9.30;3.80;;;;;;;4.19;85.07;100269.53;4993957;28;20268;-61
2023/12/31 02:37:34;;;;;;;6.67;4.33;;;;;;;4.19;84.91;100267.00;4993795;28;20220;-62
2023/12/31 02:40:02;;;;;;;7.50;4.17;;;;;;;4.16;84.79;100265.28;4993733;28;20266;-61
2023/12/31 02:42:30;;;;;;;8.27;4.67;;;;;;;4.16;84.84;100267.81;4992580;28;20212;-61
2023/12/31 02:44:59;;;;;;;6.27;4.20;;;;;;;4.15;84.82;100273.72;4993725;28;20714;-61
2023/12/31 02:47:27;;;;;;;7.30;4.50;;;;;;;4.15;84.65;100277.97;4993465;28;20251;-62
2023/12/31 02:49:57;;;;;;;8.00;4.87;;;;;;;4.14;85.11;100273.72;4993372;28;20300;-61
2023/12/31 02:52:25;;;;;;;9.77;4.60;;;;;;;4.14;85.30;100281.38;4981306;28;20215;-61
2023/12/31 02:54:53;;;;;;;7.20;4.80;;;;;;;4.15;85.43;100280.53;4993672;28;20270;-60
2023/12/31 02:57:23;;;;;;;6.73;4.77;;;;;;;4.13;85.14;100279.66;4993362;28;20208;-60
2023/12/31 02:59:50;;;;;;;9.03;4.87;;;;;;;4.11;85.13;100283.00;4991922;28;20203;-62
2023/12/31 03:02:20;;;;;;;6.90;4.80;;;;;;;4.08;85.26;100288.06;4993065;28;20211;-61
2023/12/31 03:04:47;;;;;;;5.60;4.43;;;;;;;4.06;84.95;100286.31;4993534;28;20706;-61
2023/12/31 03:07:15;;;;;;;9.40;5.27;;;;;;;4.05;85.15;100289.69;4993158;28;20206;-61
2023/12/31 03:09:43;;;;;;;7.33;4.73;;;;;;;4.06;85.16;100287.19;4993043;28;20223;-61
2023/12/31 03:12:11;;;;;;;11.57;5.07;;;;;;;4.07;84.98;100282.94;4993024;28;20217;-62
2023/12/31 03:14:39;;;;;;;8.93;5.77;;;;;;;4.08;85.27;100297.41;4992986;28;20235;-61
2023/12/31 03:17:07;;;;;;;6.90;4.63;;;;;;;4.09;85.42;100304.25;4991529;28;20208;-60
2023/12/31 03:19:37;;;;;;;11.87;5.27;;;;;;;4.07;85.34;100300.78;4993084;28;20655;-62
2023/12/31 03:22:05;;;;;;;10.20;5.57;;;;;;;4.05;85.27;100303.31;4993051;28;20749;-60
2023/12/31 03:24:33;;;;;;;8.47;4.80;;;;;;;4.04;85.66;100310.91;4992825;28;20211;-60
2023/12/31 03:27:01;;;;;;;10.57;5.73;;;;;;;4.01;85.13;100304.06;4992980;28;20266;-61
2023/12/31 03:29:29;;;;;;;9.47;5.70;;;;;;;3.99;85.86;100315.94;4992678;28;20579;-60
2023/12/31 03:31:59;;;;;;;8.97;5.73;;;;;;;4.00;85.51;100321.91;4992530;28;20227;-59
2023/12/31 03:34:27;;;;;;;8.97;5.70;;;;;;;4.04;85.87;100318.56;4991743;28;20561;-61
2023/12/31 03:36:56;;;;;;;12.00;5.50;;;;;;;4.06;85.87;100320.34;4985772;28;20235;-61
2023/12/31 03:39:24;;;;;;;7.20;5.20;;;;;;;4.11;85.58;100323.81;4992200;28;20201;-61
2023/12/31 03:41:52;;;;;;;8.93;6.20;;;;;;;4.13;85.69;100311.09;4992536;28;20208;-58
2023/12/31 03:44:20;;;;;;;9.97;6.03;;;;;;;4.13;85.14;100315.34;4992564;28;20231;-58
2023/12/31 03:46:48;;;;;;;9.80;5.70;;;;;;;4.12;85.73;100314.47;4992417;28;20214;-60
2023/12/31 03:49:15;;;;;;;9.83;6.00;;;;;;;4.16;85.67;100317.94;4992621;28;20247;-61
2023/12/31 03:51:43;;;;;;;10.37;5.50;;;;;;;4.19;85.35;100313.75;4991272;28;20664;-61
2023/12/31 03:54:13;;;;;;;12.13;6.87;;;;;;;4.19;85.66;100311.19;4992854;28;20725;-61
2023/12/31 03:56:40;;;;;;;9.40;6.00;;;;;;;4.20;85.15;100307.84;4992240;28;20250;-61
2023/12/31 03:59:08;;;;;;;11.13;6.27;;;;;;;4.21;85.35;100307.00;4992180;28;20292;-62
2023/12/31 04:01:44;;;;;;;10.87;6.90;;;;;;;4.21;85.51;100306.16;4992083;28;20207;-61
2023/12/31 04:04:14;;;;;;;9.33;5.97;;;;;;;4.19;85.53;100311.19;4992225;28;20196;-67
2023/12/31 04:06:42;;;;;;;11.47;6.07;;;;;;;4.19;85.47;100311.19;4991329;28;20686;-61
2023/12/31 04:09:13;;;;;;;9.50;5.93;;;;;;;4.17;85.71;100310.34;4992022;28;20223;-60
2023/12/31 04:11:41;;;;;;;9.93;6.10;;;;;;;4.16;85.91;100316.28;4992003;28;20264;-60
2023/12/31 04:14:09;;;;;;;14.10;6.87;;;;;;;4.14;86.11;100315.38;4991848;28;20212;-61
2023/12/31 04:16:37;;;;;;;9.67;6.30;;;;;;;4.17;86.41;100312.88;4992280;28;20682;-60
2023/12/31 04:19:05;;;;;;;10.37;5.97;;;;;;;4.19;86.40;100311.19;4992190;28;20204;-65
2023/12/31 04:21:33;;;;;;;11.03;7.10;;;;;;;4.21;86.20;100318.91;4991738;28;20200;-60
2023/12/31 04:24:01;;;;;;;10.43;6.97;;;;;;;4.24;86.16;100313.88;4990572;28;20204;-59
2023/12/31 04:26:31;;;;;;;10.07;7.07;;;;;;;4.24;85.97;100314.72;4991915;28;20208;-59
2023/12/31 04:28:59;;;;;;;12.63;7.20;;;;;;;4.29;85.88;100313.09;4991694;28;20231;-62
2023/12/31 04:31:27;;;;;;;10.50;6.83;;;;;;;4.32;86.31;100313.16;4991988;28;20671;-60
2023/12/31 04:33:55;;;;;;;9.57;6.47;;;;;;;4.30;85.90;100309.72;4991652;28;20212;-61
2023/12/31 04:36:23;;;;;;;10.03;7.00;;;;;;;4.30;85.80;100325.00;4991660;28;20287;-61
2023/12/31 04:38:51;;;;;;;13.53;6.93;;;;;;;4.29;86.22;100319.91;4991765;28;20234;-60
2023/12/31 04:41:22;;;;;;;12.73;7.13;;;;;;;4.29;86.12;100320.75;4990758;28;20697;-61
2023/12/31 04:43:51;;;;;;;15.30;7.40;;;;;;;4.32;86.14;100322.50;4991733;28;20262;-60
2023/12/31 04:46:20;;;;;;;10.00;6.93;;;;;;;4.29;85.76;100317.34;4991529;28;20203;-60
2023/12/31 04:48:48;;;;;;;10.00;6.60;;;;;;;4.27;86.13;100317.34;4991592;28;20208;-61
2023/12/31 04:51:26;;;;;;;10.67;6.67;;;;;;;4.23;85.93;100312.97;4993580;28;20713;-60
2023/12/31 04:53:55;;;;;;;11.37;7.30;;;;;;;4.20;85.95;100320.59;4996018;28;20678;-61
2023/12/31 04:56:25;;;;;;;10.63;6.60;;;;;;;4.18;86.19;100318.84;4994411;28;20204;-59
2023/12/31 04:58:56;;;;;;;13.10;7.60;;;;;;;4.14;86.31;100323.03;4995505;28;20208;-62
2023/12/31 05:01:26;;;;;;;12.73;7.07;;;;;;;4.11;86.14;100308.50;4995319;28;20295;-64
2023/12/31 05:03:54;;;;;;;12.77;6.50;;;;;;;4.06;86.77;100311.81;4995269;28;20242;-59
2023/12/31 05:06:22;;;;;;;12.93;6.80;;;;;;;4.06;86.60;100306.72;4995724;28;20678;-61
2023/12/31 05:08:50;;;;;;;13.20;7.90;;;;;;;4.06;86.82;100309.28;4995243;28;20254;-60
2023/12/31 05:11:18;;;;;;;10.90;7.30;;;;;;;4.05;86.69;100304.97;4995584;28;20204;-61
2023/12/31 05:13:46;;;;;;;13.37;7.70;;;;;;;4.04;86.62;100303.28;4986879;28;20205;-60
2023/12/31 05:16:15;;;;;;;11.17;7.53;;;;;;;4.04;86.37;100310.91;4995346;28;20624;-61
2023/12/31 05:18:46;;;;;;;17.00;8.00;;;;;;;4.00;86.48;100309.16;4995206;28;20214;-63
2023/12/31 05:21:14;;;;;;;14.10;8.17;;;;;;;3.94;86.79;100302.25;4995187;28;20290;-60
2023/12/31 05:23:42;;;;;;;13.23;8.33;;;;;;;3.95;86.59;100310.75;4994937;28;20240;-62
2023/12/31 05:26:10;;;;;;;11.83;8.23;;;;;;;3.90;86.52;100309.78;4995058;28;20208;-60
2023/12/31 05:28:38;;;;;;;14.77;8.80;;;;;;;3.86;86.72;100311.41;4993767;28;20208;-60
2023/12/31 05:31:06;;;;;;;15.07;8.53;;;;;;;3.83;87.05;100312.25;4995174;28;20687;-60
2023/12/31 05:33:36;;;;;;;13.33;8.73;;;;;;;3.80;87.02;100316.41;4989123;28;20221;-61
2023/12/31 05:36:05;;;;;;;16.10;8.90;;;;;;;3.79;87.22;100312.13;4995158;28;20208;-61
2023/12/31 05:38:35;;;;;;;12.97;8.70;;;;;;;3.78;87.13;100307.88;4994714;28;20204;-59
2023/12/31 05:41:03;;;;;;;16.20;9.23;;;;;;;3.78;87.39;100313.81;4994935;28;20212;-61
2023/12/31 05:43:31;;;;;;;16.93;9.73;;;;;;;3.74;87.20;100317.13;4995083;28;20200;-61
2023/12/31 05:46:02;;;;;;;14.73;9.80;;;;;;;3.72;86.93;100320.47;4993756;28;20651;-62
2023/12/31 05:48:30;;;;;;;19.20;9.23;;;;;;;3.71;87.48;100317.06;4994950;28;20667;-60
2023/12/31 05:50:59;;;;;;;14.93;9.40;;;;;;;3.68;87.07;100322.09;4992961;28;20294;-60
2023/12/31 05:53:27;;;;;;;15.90;9.50;;;;;;;3.66;87.21;100318.66;4994900;28;20234;-62
2023/12/31 05:55:56;;;;;;;17.40;9.47;;;;;;;3.67;87.54;100319.53;4994524;28;20200;-61
2023/12/31 05:58:24;;;;;;;16.90;9.90;;;;;;;3.66;87.38;100322.91;4994421;28;20223;-64
2023/12/31 06:00:52;;;;;;;16.40;9.40;;;;;;;3.61;87.32;100320.28;4994396;28;20212;-61
2023/12/31 06:03:20;;;;;;;16.87;9.57;;;;;;;3.58;87.39;100320.22;4994448;28;20295;-61
2023/12/31 06:05:51;;;;;;;14.20;8.53;;;;;;;3.54;87.82;100323.53;4994313;28;20204;-61
2023/12/31 06:08:20;;;;;;;13.77;8.40;;;;;;;3.48;87.07;100329.34;4987323;28;20707;-65
2023/12/31 06:10:48;;;;;;;13.60;8.53;;;;;;;3.43;87.64;100323.28;4994236;28;20240;-62
2023/12/31 06:13:16;;;;;;;14.77;8.10;;;;;;;3.39;87.95;100324.91;4992666;28;20200;-60
2023/12/31 06:15:44;;;;;;;11.93;7.77;;;;;;;3.35;87.56;100323.13;4994114;28;20207;-61
2023/12/31 06:18:12;;;;;;;13.57;8.00;;;;;;;3.31;87.96;100321.31;4993876;28;20200;-61
2023/12/31 06:20:40;;;;;;;13.13;7.90;;;;;;;3.28;87.78;100321.28;4994311;28;20655;-59
2023/12/31 06:23:08;;;;;;;13.40;7.63;;;;;;;3.26;87.68;100317.81;4993782;28;20274;-61
2023/12/31 06:25:37;;;;;;;14.47;8.27;;;;;;;3.25;87.58;100321.19;4994046;28;20223;-59
2023/12/31 06:28:08;;;;;;;15.30;8.43;;;;;;;3.26;88.10;100317.81;4993944;28;20335;-60
2023/12/31 06:30:36;;;;;;;13.37;7.73;;;;;;;3.27;87.88;100316.97;4992663;28;20786;-61
2023/12/31 06:33:05;;;;;;;14.97;8.30;;;;;;;3.26;87.88;100320.34;4993911;28;20663;-60
2023/12/31 06:35:33;;;;;;;17.50;7.97;;;;;;;3.28;87.37;100317.88;4993795;28;20196;-61
2023/12/31 06:38:02;;;;;;;12.83;7.83;;;;;;;3.26;87.76;100317.81;4994042;28;20299;-59
2023/12/31 06:40:29;;;;;;;16.10;8.03;;;;;;;3.26;87.17;100312.72;4992262;28;20208;-61
2023/12/31 06:42:59;;;;;;;15.17;7.83;;;;;;;3.22;87.24;100310.94;4994024;28;20550;-60
2023/12/31 06:45:27;;;;;;;16.63;7.57;;;;;;;3.20;87.75;100314.25;4993738;28;20211;-61
2023/12/31 06:47:55;;;;;;;15.07;8.73;;;;;;;3.19;87.43;100315.09;4993764;28;20200;-61
2023/12/31 06:50:23;;;;;;;14.47;8.43;;;;;;;3.17;87.65;100317.63;4993400;28;20227;-60
2023/12/31 06:52:51;;;;;;;15.00;8.63;;;;;;;3.15;87.25;100319.25;4993414;28;20697;-61
2023/12/31 06:55:19;;;;;;;14.70;8.47;;;;;;;3.15;87.43;100320.13;4992293;28;20204;-60
2023/12/31 06:57:47;;;;;;;15.73;8.23;;;;;;;3.13;87.36;100310.75;4993723;28;20667;-61
2023/12/31 07:00:17;;;;;;;12.27;8.17;;;;;;;3.11;86.94;100317.47;4993240;28;20204;-60
2023/12/31 07:02:46;;;;;;;14.00;8.07;;;;;;;3.14;86.93;100320.09;4993304;28;20204;-61
2023/12/31 07:05:14;;;;;;;13.77;8.37;;;;;;;3.12;87.65;100316.63;4993122;28;20215;-59
2023/12/31 07:07:42;;;;;;;18.33;9.20;;;;;;;3.10;87.03;100316.63;4991851;28;20298;-60
2023/12/31 07:10:10;;;;;;;11.10;8.17;;;;;;;3.09;87.61;100326.75;4993465;28;20679;-61
2023/12/31 07:12:38;;;;;;;15.50;9.27;;;;;;;3.08;87.44;100318.25;4989181;28;20298;-61
2023/12/31 07:15:09;;;;;;;14.77;8.63;;;;;;;3.10;87.35;100318.31;4992860;28;20213;-61
2023/12/31 07:17:38;;;;;;;14.23;8.53;;;;;;;3.10;87.07;100313.22;4992731;28;20231;-62
2023/12/31 07:20:08;;;;;;;21.73;9.13;;;;;;;3.13;87.63;100313.28;4993260;28;20212;-62
2023/12/31 07:22:37;;;;;;;19.90;10.27;;;;;;;3.13;87.16;100311.59;4991423;28;20243;-61
2023/12/31 07:25:06;;;;;;;14.60;8.83;;;;;;;3.13;86.92;100311.59;4993246;28;20211;-61
2023/12/31 07:27:34;;;;;;;15.70;9.47;;;;;;;3.16;86.62;100310.78;4992865;28;20552;-60
2023/12/31 07:30:02;;;;;;;16.63;9.13;;;;;;;3.16;86.37;100318.41;4992740;28;20200;-60
2023/12/31 07:32:30;;;;;;;14.73;8.30;;;;;;;3.15;86.33;100317.56;4992767;28;20274;-61
2023/12/31 07:35:00;;;;;;;20.17;9.30;;;;;;;3.16;86.49;100331.16;4991133;28;20204;-62
2023/12/31 07:37:28;;;;;;;14.90;8.97;;;;;;;3.16;87.03;100320.97;4992710;28;20211;-60
2023/12/31 07:39:55;;;;;;;14.20;8.40;;;;;;;3.19;86.74;100326.13;4992894;28;20200;-62
2023/12/31 07:42:25;;;;;;;16.17;8.40;;;;;;;3.22;86.30;100331.31;4982343;28;20677;-60
2023/12/31 07:44:53;;;;;;;17.97;8.87;;;;;;;3.25;86.60;100333.94;4992492;28;20230;-60
2023/12/31 07:47:21;;;;;;;15.23;8.37;;;;;;;3.24;86.29;100324.56;4992661;28;20566;-61
2023/12/31 07:49:49;;;;;;;16.40;8.40;;;;;;;3.27;86.02;100323.75;4992476;28;20769;-59
2023/12/31 07:52:19;;;;;;;15.10;8.23;;;;;;;3.28;85.79;100325.50;4991227;28;20633;-60
2023/12/31 07:54:47;;;;;;;17.47;8.27;;;;;;;3.30;85.83;100334.88;4992527;28;20743;-63
2023/12/31 07:57:15;;;;;;;15.00;8.00;;;;;;;3.32;85.95;100333.25;4992446;28;20639;-61
2023/12/31 07:59:47;;;;;;;17.47;8.37;;;;;;;3.33;85.75;100327.31;4992400;28;20218;-61
2023/12/31 08:02:15;;;;;;;17.27;8.07;;;;;;;3.39;85.93;100327.47;4992245;28;20222;-60
2023/12/31 08:04:43;;;;;;;16.93;8.23;;;;;;;3.49;86.04;100330.19;4991867;28;20294;-64
2023/12/31 08:07:11;;;;;;;13.43;7.30;;;;;;;3.52;85.35;100320.91;4990869;28;20215;-61
2023/12/31 08:09:41;;;;;;;13.30;8.30;;;;;;;3.56;84.89;100322.69;4992162;28;20250;-60
2023/12/31 08:12:08;;;;;;;18.00;7.97;;;;;;;3.62;84.85;100329.63;4992202;28;20693;-60
2023/12/31 08:14:36;;;;;;;13.67;8.27;;;;;;;3.66;84.26;100331.41;4992308;28;20255;-60
2023/12/31 08:17:04;;;;;;;11.63;7.43;;;;;;;3.66;84.17;100333.97;4991720;28;20214;-59
2023/12/31 08:19:32;;;;;;;14.17;7.83;;;;;;;3.68;83.70;100337.38;4991931;28;20212;-60
2023/12/31 08:22:00;;;;;;;13.20;7.80;;;;;;;3.69;84.16;100336.59;4991689;28;20258;-59
2023/12/31 08:24:28;;;;;;;13.53;7.93;;;;;;;3.74;83.62;100339.22;4991634;28;20593;-61
2023/12/31 08:26:57;;;;;;;12.57;7.90;;;;;;;3.76;83.54;100338.44;4992720;28;20196;-55
2023/12/31 08:29:26;;;;;;;14.67;8.57;;;;;;;3.78;83.24;100335.91;4992089;28;20328;-55
2023/12/31 08:31:55;;;;;;;12.73;7.70;;;;;;;3.78;83.69;100338.44;4992574;28;20699;-55
2023/12/31 08:34:23;;;;;;;13.80;8.23;;;;;;;3.80;83.57;100339.34;4992215;28;20218;-59
2023/12/31 08:36:52;;;;;;;14.77;8.33;;;;;;;3.80;83.77;100342.75;4991834;28;20336;-59
2023/12/31 08:39:20;;;;;;;16.87;8.53;;;;;;;3.80;83.34;100331.72;4992010;28;20214;-58
2023/12/31 08:41:48;;;;;;;15.80;7.63;;;;;;;3.85;83.33;100338.59;4992120;28;20209;-59
2023/12/31 08:44:18;;;;;;;13.00;8.17;;;;;;;3.92;83.29;100346.38;4991909;28;20290;-61
2023/12/31 08:46:48;;;;;;;13.40;7.73;;;;;;;3.95;83.80;100338.81;4991744;28;20258;-58
2023/12/31 08:49:16;;;;;;;15.33;7.37;;;;;;;4.05;83.52;100339.00;4991865;28;20208;-59
2023/12/31 08:51:44;;;;;;;13.00;7.77;;;;;;;4.14;83.37;100343.41;4992083;28;20219;-59
2023/12/31 08:54:12;;;;;;;16.83;8.33;;;;;;;4.23;82.69;100337.63;4990844;28;20204;-59
2023/12/31 08:56:40;;;;;;;17.43;8.07;;;;;;;4.32;82.48;100338.66;4991620;28;20620;-62
2023/12/31 08:59:13;;;;;;;14.30;7.90;;;;;;;4.40;82.12;100340.50;4992126;28;20569;-61
2023/12/31 09:01:43;;;;;;;14.87;7.90;;;;;;;4.46;81.93;100341.47;4991876;28;20650;-58
2023/12/31 09:04:11;;;;;;;14.10;8.40;;;;;;;4.55;82.10;100345.88;4991621;28;20201;-58
2023/12/31 09:06:39;;;;;;;12.33;7.47;;;;;;;4.64;81.58;100346.03;4991593;28;20282;-58
2023/12/31 09:09:07;;;;;;;15.03;8.17;;;;;;;4.72;81.23;100343.63;4990268;28;20204;-57
2023/12/31 09:11:39;;;;;;;13.73;8.03;;;;;;;4.79;80.69;100341.19;4991831;28;20227;-59
2023/12/31 09:14:07;;;;;;;12.37;7.03;;;;;;;4.84;79.82;100334.47;4991592;28;20208;-59
2023/12/31 09:16:35;;;;;;;14.00;7.17;;;;;;;4.89;79.70;100331.97;4991934;28;20254;-57
2023/12/31 09:19:04;;;;;;;11.27;7.40;;;;;;;4.94;79.71;100332.94;4992125;28;20286;-59
2023/12/31 09:21:32;;;;;;;14.27;7.40;;;;;;;4.99;79.45;100330.44;4980922;28;20231;-61
2023/12/31 09:24:00;;;;;;;14.23;7.57;;;;;;;5.03;78.91;100330.50;4991639;28;20210;-59
2023/12/31 09:26:28;;;;;;;13.83;7.57;;;;;;;5.06;79.18;100329.69;4990532;28;20543;-58
2023/12/31 09:28:56;;;;;;;11.90;7.47;;;;;;;5.07;78.97;100323.75;4989946;28;20211;-61
2023/12/31 09:31:25;;;;;;;12.10;7.07;;;;;;;5.10;78.36;100321.25;4991195;28;20212;-62
2023/12/31 09:33:53;;;;;;;14.17;7.90;;;;;;;5.12;78.62;100314.47;4991174;28;20262;-60
2023/12/31 09:36:22;;;;;;;12.70;7.70;;;;;;;5.15;77.98;100316.19;4991257;28;20200;-61
2023/12/31 09:38:51;;;;;;;14.80;7.30;;;;;;;5.13;78.40;100313.63;4995195;28;20208;-62
2023/12/31 09:41:25;;;;;;;14.47;7.90;;;;;;;5.13;78.22;100303.41;4995153;28;20681;-58
2023/12/31 09:43:54;;;;;;;11.87;7.23;;;;;;;5.18;78.34;100314.53;4995104;28;20199;-62
2023/12/31 09:46:23;;;;;;;17.60;7.27;;;;;;;5.17;77.23;100310.28;4993543;28;20262;-62
2023/12/31 09:48:53;;;;;;;10.63;6.70;;;;;;;5.14;77.76;100305.13;4981348;28;20206;-63
2023/12/31 09:51:23;;;;;;;13.90;6.57;;;;;;;5.15;78.16;100298.31;4995016;28;20655;-62
2023/12/31 09:53:53;;;;;;;13.87;7.67;;;;;;;5.17;78.00;100299.22;4992902;28;20299;-60
2023/12/31 09:56:23;;;;;;;15.33;7.40;;;;;;;5.18;78.40;100290.69;4994901;28;20204;-62
2023/12/31 09:58:52;;;;;;;13.83;7.00;;;;;;;5.21;77.86;100289.06;4994798;28;20663;-61
2023/12/31 10:01:37;;;;;;;12.07;7.33;;;;;;;5.23;77.24;100289.94;4994492;28;20796;-61
2023/12/31 10:04:05;;;;;;;14.27;6.80;;;;;;;5.23;77.51;100289.09;4994831;28;20564;-61
2023/12/31 10:06:39;;;;;;;14.60;7.47;;;;;;;5.25;77.00;100284.84;4994184;28;20267;-60
2023/12/31 10:09:09;;;;;;;16.83;7.50;;;;;;;5.25;77.69;100280.59;4994600;28;20250;-64
2023/12/31 10:11:39;;;;;;;13.40;7.47;;;;;;;5.30;77.83;100281.53;4993371;28;20250;-60
2023/12/31 10:14:07;;;;;;;13.90;7.63;;;;;;;5.38;77.74;100275.66;4994208;28;20204;-62
2023/12/31 10:16:36;;;;;;;12.77;7.70;;;;;;;5.43;77.24;100281.69;4994502;28;20647;-61
2023/12/31 10:19:05;;;;;;;14.83;7.43;;;;;;;5.43;76.54;100266.34;4994099;28;20212;-62
2023/12/31 10:21:33;;;;;;;16.00;7.60;;;;;;;5.41;76.38;100278.22;4993899;28;20211;-64
2023/12/31 10:24:03;;;;;;;13.13;7.47;;;;;;;5.39;76.68;100273.13;4994451;28;20600;-64
2023/12/31 10:26:31;;;;;;;13.47;7.07;;;;;;;5.40;77.01;100274.81;4994224;28;20575;-70
2023/12/31 10:28:59;;;;;;;12.73;7.33;;;;;;;5.44;76.84;100268.91;4992982;28;20204;-63
2023/12/31 10:31:28;;;;;;;13.87;7.77;;;;;;;5.48;77.09;100267.25;4994288;28;20278;-57
2023/12/31 10:33:56;;;;;;;13.03;7.20;;;;;;;5.47;76.33;100268.09;4994433;28;20220;-55
2023/12/31 10:36:24;;;;;;;15.43;7.20;;;;;;;5.46;75.92;100264.69;4994536;28;20285;-55
2023/12/31 10:38:52;;;;;;;9.77;7.07;;;;;;;5.49;76.17;100261.31;4994122;28;20223;-59
2023/12/31 10:41:22;;;;;;;12.87;6.93;;;;;;;5.49;76.00;100253.66;4994154;28;20585;-61
2023/12/31 10:43:51;;;;;;;13.37;7.27;;;;;;;5.49;76.33;100246.00;4992908;28;20208;-59
2023/12/31 10:46:20;;;;;;;11.43;7.80;;;;;;;5.50;75.97;100248.56;4994056;28;20211;-58
2023/12/31 10:49:00;;;;;;;12.27;7.13;;;;;;;5.47;76.48;100252.78;4992774;28;20215;-58
2023/12/31 10:51:31;;;;;;;14.63;7.27;;;;;;;5.43;76.69;100245.91;4993983;28;20663;-58
2023/12/31 10:54:03;;;;;;;13.13;7.37;;;;;;;5.39;76.80;100246.72;4992167;28;20328;-57
2023/12/31 10:56:33;;;;;;;12.77;7.80;;;;;;;5.36;76.60;100237.31;4993631;28;20729;-60
2023/12/31 10:59:02;;;;;;;13.30;7.80;;;;;;;5.36;77.18;100232.19;4993463;28;20208;-61
2023/12/31 11:01:31;;;;;;;15.30;7.83;;;;;;;5.37;76.65;100227.94;4993413;28;20204;-58
2023/12/31 11:03:59;;;;;;;11.83;7.83;;;;;;;5.32;76.83;100215.97;4993997;28;20211;-64
2023/12/31 11:06:28;;;;;;;13.40;7.20;;;;;;;5.28;76.80;100213.34;4993671;28;20196;-60
2023/12/31 11:08:56;;;;;;;12.87;7.53;;;;;;;5.23;77.65;100210.75;4993365;28;20204;-61
2023/12/31 11:11:24;;;;;;;16.03;7.60;;;;;;;5.21;76.91;100216.66;4991755;28;20306;-63
2023/12/31 11:13:58;;;;;;;11.60;7.10;;;;;;;5.19;77.76;100214.09;4993075;28;20220;-62
2023/12/31 11:16:41;;;;;;;12.63;7.33;;;;;;;5.20;77.89;100200.50;4993304;28;20738;-65
2023/12/31 11:19:38;;;;;;;10.47;6.87;;;;;;;5.24;77.76;100201.38;4993153;28;20196;-64
2023/12/31 11:22:34;;;;;;;13.13;6.93;;;;;;;5.24;77.29;100201.38;4991392;28;20235;-64
2023/12/31 11:25:08;;;;;;;12.50;7.00;;;;;;;5.19;77.43;100196.22;4989399;28;20239;-65
2023/12/31 11:27:37;;;;;;;11.50;6.90;;;;;;;5.15;77.22;100186.78;4992762;28;20294;-63
2023/12/31 11:30:09;;;;;;;14.20;7.63;;;;;;;5.12;77.25;100191.88;4993029;28;20609;-63
2023/12/31 11:32:37;;;;;;;14.20;7.23;;;;;;;5.10;77.55;100191.00;4993156;28;20215;-61
2023/12/31 11:35:06;;;;;;;11.63;6.90;;;;;;;5.09;77.24;100181.63;4993520;28;20250;-54